Sitka Rocky Gutierrez Airport

Date: 2024-06-11 09:53:00Z

Type: METAR

Weather: Light Rain

Winds: 350° at 3 kts

Visibility: 4

Ceiling (AGL FT): Clouds BROKEN at 500, OVERCAST at 1100, BROKEN at 5000, BROKEN at 15000

RAW METAR: PASI 110953Z 35003KT 4SM -RA BR BKN005 OVC011 09/07 A2983 RMK AO2 RAB14E27B47 CIG 003V009 SLP102 P0000 T00890067

project-image